Time;durP1;ratioP1;P1;durP2;ratioP2;P2;SDS_P1;SDS_P2;PMS_P1;PMS_P2;Temp;Humidity;BMP_temperature;BMP_pressure;BME280_temperature;BME280_humidity;BME280_pressure;Samples;Min_cycle;Max_cycle;Signal;HPM_P1;HPM_P2
2021/12/24 00:01:46;;;;;;;10.75;4.68;;;;;;;7.06;97.41;100579.94;4976766;28;117348;-42
2021/12/24 00:04:12;;;;;;;7.80;4.38;;;;;;;7.17;97.58;100597.25;4977191;28;98818;-42
2021/12/24 00:06:38;;;;;;;13.70;5.00;;;;;;;7.21;97.71;100589.91;4976393;28;97203;-42
2021/12/24 00:09:07;;;;;;;8.15;4.32;;;;;;;7.27;98.02;100581.53;4978054;28;96689;-42
2021/12/24 00:11:34;;;;;;;14.95;5.03;;;;;;;7.31;97.90;100587.59;4975954;28;100752;-42
2021/12/24 00:14:02;;;;;;;12.18;5.72;;;;;;;7.28;97.78;100568.91;4977252;28;97856;-42
2021/12/24 00:16:39;;;;;;;11.52;4.72;;;;;;;7.31;97.89;100564.22;4976977;28;96455;-42
2021/12/24 00:19:24;;;;;;;7.85;4.22;;;;;;;7.38;97.98;100570.16;4977706;28;96562;-42
2021/12/24 00:35:17;;;;;;;12.60;4.72;;;;;;;7.66;98.03;100566.88;4977510;28;96982;-42
2021/12/24 00:37:46;;;;;;;10.93;3.75;;;;;;;7.65;97.87;100557.03;4975777;28;97169;-42
2021/12/24 00:40:18;;;;;;;6.40;3.80;;;;;;;7.68;98.26;100564.09;4975773;28;96997;-42
2021/12/24 00:42:52;;;;;;;6.65;3.20;;;;;;;7.66;98.31;100556.09;4976385;28;97427;-42
2021/12/24 00:45:20;;;;;;;11.80;4.45;;;;;;;7.80;98.01;100577.78;4975639;28;101099;-42
2021/12/24 00:47:47;;;;;;;9.80;3.78;;;;;;;7.74;97.69;100563.75;4975790;28;96567;-42
2021/12/24 00:50:17;;;;;;;8.90;3.88;;;;;;;7.70;98.15;100554.97;4975671;28;97117;-42
2021/12/24 00:55:13;;;;;;;7.13;3.63;;;;;;;7.86;98.21;100581.94;4975965;28;97858;-43
2021/12/24 00:57:46;;;;;;;12.50;4.25;;;;;;;7.85;98.26;100582.91;4975514;28;96654;-42
2021/12/24 01:00:17;;;;;;;13.73;4.35;;;;;;;7.81;98.11;100568.72;4975163;28;96947;-42
2021/12/24 01:02:44;;;;;;;5.68;3.58;;;;;;;7.83;98.05;100557.84;4975218;28;101389;-42
2021/12/24 01:05:10;;;;;;;6.55;3.72;;;;;;;7.78;98.17;100554.56;4974944;28;101002;-42
2021/12/24 01:07:36;;;;;;;7.22;4.22;;;;;;;7.83;98.12;100557.84;4976258;28;96461;-42
2021/12/24 01:10:03;;;;;;;11.00;4.80;;;;;;;7.87;98.20;100570.22;4976748;28;96680;-42
2021/12/24 01:12:29;;;;;;;7.07;3.53;;;;;;;7.98;98.20;100586.66;4974920;28;101572;-42
2021/12/24 01:14:54;;;;;;;19.10;4.35;;;;;;;7.92;98.15;100568.16;4976201;28;97767;-42
2021/12/24 01:17:32;;;;;;;9.35;4.88;;;;;;;8.03;98.30;100579.22;4976778;28;96548;-42
2021/12/24 01:20:05;;;;;;;7.43;2.75;;;;;;;8.02;98.21;100572.06;4975344;28;96764;-42
2021/12/24 01:23:13;;;;;;;7.38;3.40;;;;;;;8.07;98.51;100575.38;4975007;28;98876;-42
2021/12/24 01:25:44;;;;;;;5.25;3.47;;;;;;;8.13;98.37;100573.28;4976184;28;98641;-42
2021/12/24 01:39:17;;;;;;;6.20;3.05;;;;;;;8.20;98.09;100562.09;4976538;28;96570;-42
2021/12/24 01:44:27;;;;;;;7.72;3.65;;;;;;;8.19;97.97;100554.06;4973584;28;98069;-42
2021/12/24 01:47:07;;;;;;;7.85;3.10;;;;;;;8.28;97.91;100570.59;4975866;28;97358;-42
2021/12/24 01:49:32;;;;;;;6.65;2.78;;;;;;;8.22;97.83;100562.88;4976636;28;96574;-42
2021/12/24 01:51:58;;;;;;;6.70;3.15;;;;;;;8.20;97.91;100561.19;4976823;28;96747;-42
2021/12/24 01:54:26;;;;;;;8.48;3.30;;;;;;;8.26;98.00;100572.50;4975381;28;99236;-42
2021/12/24 01:56:51;;;;;;;9.07;4.13;;;;;;;8.29;97.80;100568.78;4973919;28;101141;-42
2021/12/24 01:59:16;;;;;;;8.85;3.08;;;;;;;8.33;97.79;100578.44;4974948;28;96507;-42
2021/12/24 02:01:43;;;;;;;6.97;3.15;;;;;;;8.34;97.62;100568.50;4976163;28;96737;-42
2021/12/24 02:04:11;;;;;;;8.05;3.03;;;;;;;8.22;97.69;100560.19;4974052;28;101626;-42
2021/12/24 02:06:38;;;;;;;5.43;2.92;;;;;;;8.31;97.75;100577.66;4973011;28;100826;-42
2021/12/24 02:09:03;;;;;;;10.82;3.55;;;;;;;8.20;97.70;100561.19;4974243;28;96741;-42
2021/12/24 02:11:30;;;;;;;8.15;3.03;;;;;;;8.24;97.58;100579.81;4975965;28;96794;-42
2021/12/24 02:13:56;;;;;;;9.73;2.95;;;;;;;8.27;97.52;100576.06;4975314;28;99312;-42
2021/12/24 02:16:48;;;;;;;4.82;2.38;;;;;;;8.25;97.83;100576.19;4975888;28;97814;-42
2021/12/24 02:30:10;;;;;;;6.30;3.63;;;;;;;8.13;97.50;100560.69;4975638;28;96577;-42
2021/12/24 02:32:40;;;;;;;8.50;3.55;;;;;;;8.27;97.46;100584.16;4975578;28;96758;-42
2021/12/24 02:35:06;;;;;;;8.98;3.33;;;;;;;8.22;97.39;100570.06;4973773;28;101349;-42
2021/12/24 02:37:31;;;;;;;18.15;2.83;;;;;;;8.19;97.29;100563.03;4975147;28;98520;-42
2021/12/24 02:39:56;;;;;;;8.75;4.38;;;;;;;8.26;97.33;100582.44;4975235;28;99656;-42
2021/12/24 02:42:23;;;;;;;9.23;4.50;;;;;;;8.13;97.08;100570.59;4975467;28;96808;-42
2021/12/24 02:44:50;;;;;;;11.40;2.78;;;;;;;8.14;97.27;100566.94;4973708;28;100936;-42
2021/12/24 02:48:12;;;;;;;4.57;2.40;;;;;;;8.15;97.32;100569.56;4973706;28;100955;-42
2021/12/24 02:55:16;;;;;;;13.43;2.58;;;;;;;8.20;97.00;100574.69;4974862;28;97046;-42
2021/12/24 02:57:43;;;;;;;8.38;3.95;;;;;;;8.22;97.11;100565.56;4973531;28;101109;-42
2021/12/24 03:00:19;;;;;;;7.78;3.78;;;;;;;8.23;97.07;100567.31;4973100;28;96924;-42
2021/12/24 03:02:46;;;;;;;5.70;2.88;;;;;;;8.25;96.80;100569.91;4975141;28;96634;-42
2021/12/24 03:05:14;;;;;;;4.25;2.55;;;;;;;8.18;96.87;100549.66;4973262;28;101341;-42
2021/12/24 03:07:40;;;;;;;6.80;3.20;;;;;;;8.16;96.70;100556.94;4973584;28;100980;-42
2021/12/24 03:10:12;;;;;;;6.60;2.50;;;;;;;8.19;97.06;100578.34;4973539;28;96578;-42
2021/12/24 03:12:38;;;;;;;6.73;2.53;;;;;;;8.14;96.75;100564.25;4975025;28;96615;-42
2021/12/24 03:15:05;;;;;;;8.18;3.15;;;;;;;8.18;96.67;100571.22;4972925;28;100832;-42
2021/12/24 03:17:31;;;;;;;5.80;3.17;;;;;;;8.09;96.75;100561.81;4972743;28;101023;-42
2021/12/24 03:20:03;;;;;;;5.55;2.67;;;;;;;8.19;96.87;100581.03;4974979;28;96747;-42
2021/12/24 03:22:50;;;;;;;8.20;3.17;;;;;;;8.15;96.60;100574.97;4974890;28;96667;-42
2021/12/24 03:25:16;;;;;;;4.53;2.17;;;;;;;8.09;96.57;100567.22;4973202;28;101083;-42
2021/12/24 03:27:42;;;;;;;10.68;2.53;;;;;;;8.16;96.81;100574.00;4974653;28;97851;-42
2021/12/24 03:30:08;;;;;;;5.22;2.22;;;;;;;8.07;96.58;100566.41;4973522;28;96733;-42
2021/12/24 03:32:34;;;;;;;5.40;2.63;;;;;;;8.07;96.74;100567.28;4973535;28;96875;-42
2021/12/24 03:35:00;;;;;;;5.45;2.90;;;;;;;8.06;96.82;100559.28;4974629;28;97984;-42
2021/12/24 03:37:25;;;;;;;4.18;2.22;;;;;;;8.16;96.58;100571.31;4974301;28;107151;-42
2021/12/24 03:39:50;;;;;;;2.95;1.63;;;;;;;8.03;96.68;100554.94;4974401;28;96563;-42
2021/12/24 03:42:16;;;;;;;4.53;2.55;;;;;;;8.08;96.45;100566.34;4974572;28;96755;-42
2021/12/24 03:44:45;;;;;;;9.18;2.33;;;;;;;8.02;96.57;100555.03;4973438;28;124970;-42
2021/12/24 03:47:17;;;;;;;6.43;2.22;;;;;;;8.16;96.38;100571.31;4972712;28;101156;-42
2021/12/24 03:54:58;;;;;;;10.38;1.52;;;;;;;8.03;96.43;100560.34;4973373;28;97451;-42
2021/12/24 03:57:28;;;;;;;4.63;1.70;;;;;;;8.18;96.58;100579.31;4974362;28;97900;-42
2021/12/24 03:59:56;;;;;;;3.83;2.20;;;;;;;8.14;96.39;100566.94;4972553;28;96930;-42
2021/12/24 04:02:21;;;;;;;4.97;2.42;;;;;;;8.14;96.23;100564.25;4972869;28;96830;-42
2021/12/24 04:04:47;;;;;;;2.60;1.67;;;;;;;8.03;96.19;100560.34;4973798;28;97923;-42
2021/12/24 04:07:14;;;;;;;9.63;2.47;;;;;;;8.15;96.23;100580.38;4974237;28;97277;-42
2021/12/24 04:09:47;;;;;;;4.55;2.38;;;;;;;8.12;96.06;100563.47;4972929;28;96684;-42
2021/12/24 04:12:12;;;;;;;1.55;1.13;;;;;;;8.15;96.24;100579.47;4972709;28;96898;-42
2021/12/24 04:14:37;;;;;;;2.58;2.00;;;;;;;7.99;95.95;100550.66;4973836;28;104902;-42
2021/12/24 04:17:03;;;;;;;10.45;2.42;;;;;;;8.14;95.98;100577.75;4973264;28;126618;-42
2021/12/24 04:25:01;;;;;;;4.30;2.20;;;;;;;8.06;96.01;100578.19;4974018;28;96987;-42
2021/12/24 04:27:29;;;;;;;5.32;1.63;;;;;;;8.00;95.96;100570.41;4973698;28;99475;-42
2021/12/24 04:30:02;;;;;;;6.03;1.75;;;;;;;8.00;96.07;100567.72;4974729;28;96646;-42
2021/12/24 04:32:46;;;;;;;5.20;2.20;;;;;;;8.00;95.84;100579.38;4975802;28;96692;-42
2021/12/24 04:51:31;;;;;;;2.50;1.65;;;;;;;7.89;95.60;100573.72;4977270;28;96521;-42
2021/12/24 05:04:56;;;;;;;3.23;2.07;;;;;;;7.96;95.34;100580.50;4974792;28;96666;-42
2021/12/24 05:07:59;;;;;;;1.63;1.05;;;;;;;7.97;95.78;100584.94;4975199;28;100820;-42
2021/12/24 05:10:22;;;;;;;8.77;2.05;;;;;;;7.96;95.36;100577.81;4975899;28;98593;-42
2021/12/24 05:12:47;;;;;;;3.90;1.73;;;;;;;7.99;95.38;100579.47;4976687;28;96575;-42
2021/12/24 05:15:13;;;;;;;3.05;1.15;;;;;;;7.94;95.34;100571.63;4976170;28;116593;-42
2021/12/24 05:23:05;;;;;;;6.82;1.60;;;;;;;7.86;95.24;100565.78;4975986;28;96549;-42
2021/12/24 05:25:31;;;;;;;3.60;1.75;;;;;;;7.85;95.14;100572.13;4976303;28;96875;-41
2021/12/24 05:27:56;;;;;;;2.25;1.13;;;;;;;7.89;94.80;100589.91;4976224;28;97115;-42
2021/12/24 05:30:23;;;;;;;8.27;1.60;;;;;;;7.87;95.33;100587.28;4976005;28;99115;-42
2021/12/24 05:32:49;;;;;;;4.60;1.40;;;;;;;7.87;95.39;100581.88;4975053;28;96519;-42
2021/12/24 05:35:14;;;;;;;4.35;0.95;;;;;;;7.78;95.14;100571.59;4976590;28;96785;-42
2021/12/24 05:37:40;;;;;;;3.63;1.58;;;;;;;7.85;95.23;100586.47;4975870;28;97874;-42
2021/12/24 05:40:06;;;;;;;3.25;1.25;;;;;;;7.87;95.28;100583.72;4975764;28;114953;-42
2021/12/24 05:42:33;;;;;;;2.53;1.52;;;;;;;7.90;95.21;100598.84;4975956;28;96581;-42
2021/12/24 05:45:06;;;;;;;5.13;2.15;;;;;;;7.84;94.90;100594.63;4976430;28;97092;-42
2021/12/24 05:47:32;;;;;;;7.90;1.60;;;;;;;7.86;95.07;100600.81;4974352;28;97751;-42
2021/12/24 05:49:58;;;;;;;1.77;1.08;;;;;;;7.84;95.07;100589.25;4974179;28;100990;-42
2021/12/24 05:52:24;;;;;;;5.28;1.08;;;;;;;7.75;95.30;100579.00;4974721;28;96606;-42
2021/12/24 05:54:49;;;;;;;3.75;1.40;;;;;;;7.73;95.04;100583.59;4976233;28;96775;-42
2021/12/24 05:57:14;;;;;;;2.38;1.40;;;;;;;7.77;95.15;100596.81;4975479;28;97421;-42
2021/12/24 05:59:40;;;;;;;2.63;1.25;;;;;;;7.77;95.07;100595.94;4974410;28;122940;-42
2021/12/24 06:02:05;;;;;;;4.40;1.50;;;;;;;7.73;95.01;100599.75;4976105;28;96441;-42
2021/12/24 06:04:31;;;;;;;2.05;1.02;;;;;;;7.68;95.14;100588.38;4976430;28;96735;-42
2021/12/24 06:06:56;;;;;;;2.03;1.40;;;;;;;7.68;95.25;100585.66;4975364;28;111283;-42
2021/12/24 06:09:21;;;;;;;5.97;1.40;;;;;;;7.64;95.11;100571.47;4975745;28;97808;-42
2021/12/24 06:11:47;;;;;;;20.13;1.75;;;;;;;7.74;95.15;100578.09;4975831;28;96462;-42
2021/12/24 06:14:12;;;;;;;2.42;1.20;;;;;;;7.80;95.19;100590.38;4975842;28;96728;-42
2021/12/24 06:16:47;;;;;;;2.08;0.95;;;;;;;7.70;95.25;100575.66;4975623;28;97706;-42
2021/12/24 06:19:14;;;;;;;9.98;1.77;;;;;;;7.68;95.04;100564.97;4973786;28;100730;-42
2021/12/24 06:21:40;;;;;;;5.45;1.27;;;;;;;7.68;94.88;100575.75;4974176;28;96618;-42
2021/12/24 06:24:05;;;;;;;2.00;1.40;;;;;;;7.65;94.84;100582.19;4975574;28;96776;-42
2021/12/24 06:26:30;;;;;;;5.20;1.38;;;;;;;7.72;94.53;100600.69;4975202;28;98504;-42
2021/12/24 06:28:56;;;;;;;7.95;1.73;;;;;;;7.71;94.83;100598.97;4975839;28;97866;-42
2021/12/24 06:31:21;;;;;;;2.65;1.10;;;;;;;7.63;94.87;100589.47;4974581;28;117565;-42
2021/12/24 06:33:46;;;;;;;2.58;1.23;;;;;;;7.55;94.89;100583.59;4974534;28;111146;-42
2021/12/24 06:36:12;;;;;;;1.92;1.27;;;;;;;7.66;94.72;100604.59;4974842;28;97248;-42
2021/12/24 06:38:37;;;;;;;2.22;1.27;;;;;;;7.68;94.91;100612.63;4975346;28;97828;-42
2021/12/24 06:41:03;;;;;;;1.83;0.88;;;;;;;7.63;94.71;100596.69;4975240;28;96621;-42
2021/12/24 06:43:29;;;;;;;6.38;1.13;;;;;;;7.56;94.64;100585.38;4975447;28;96862;-42
2021/12/24 06:45:56;;;;;;;1.17;0.82;;;;;;;7.62;94.76;100589.53;4975229;28;97439;-42
2021/12/24 06:48:22;;;;;;;1.33;0.85;;;;;;;7.50;94.86;100556.03;4974619;28;97903;-42
2021/12/24 06:50:47;;;;;;;8.88;1.33;;;;;;;7.59;94.63;100578.94;4974763;28;96504;-42
2021/12/24 06:53:12;;;;;;;7.05;1.52;;;;;;;7.49;94.70;100562.38;4975177;28;96728;-42
2021/12/24 06:55:38;;;;;;;4.75;1.15;;;;;;;7.56;94.72;100566.50;4974880;28;97915;-42
2021/12/24 06:58:04;;;;;;;3.85;0.68;;;;;;;7.58;94.84;100583.47;4975005;28;97297;-42
2021/12/24 07:00:30;;;;;;;4.45;1.10;;;;;;;7.54;94.81;100576.47;4974186;28;96734;-42
2021/12/24 07:02:56;;;;;;;10.48;1.88;;;;;;;7.40;94.83;100565.56;4975266;28;96768;-42
2021/12/24 07:05:21;;;;;;;1.95;1.02;;;;;;;7.58;94.88;100586.16;4973423;28;101329;-42
2021/12/24 07:07:47;;;;;;;11.90;1.65;;;;;;;7.48;94.85;100567.84;4974650;28;99162;-42
2021/12/24 07:10:13;;;;;;;2.90;1.17;;;;;;;7.59;94.78;100578.94;4974244;28;113800;-42
2021/12/24 07:12:38;;;;;;;3.88;1.27;;;;;;;7.53;94.71;100571.16;4975088;28;96561;-42
2021/12/24 07:15:04;;;;;;;3.90;1.48;;;;;;;7.50;94.68;100560.56;4974648;28;101313;-42
2021/12/24 07:17:29;;;;;;;6.05;1.67;;;;;;;7.53;94.72;100566.66;4975025;28;97827;-42
2021/12/24 07:19:54;;;;;;;2.33;1.45;;;;;;;7.48;94.67;100574.09;4974157;28;115184;-41
2021/12/24 07:22:20;;;;;;;1.88;1.05;;;;;;;7.51;94.62;100565.88;4975112;28;96752;-42
2021/12/24 07:24:45;;;;;;;2.88;1.92;;;;;;;7.60;94.56;100578.88;4974215;28;97958;-42
2021/12/24 07:27:11;;;;;;;4.28;1.30;;;;;;;7.60;94.56;100583.34;4973524;28;127020;-42
2021/12/24 07:29:37;;;;;;;5.72;1.58;;;;;;;7.61;94.70;100579.72;4975294;28;96473;-42
2021/12/24 07:32:03;;;;;;;2.17;1.00;;;;;;;7.59;94.48;100593.28;4974718;28;96778;-42
2021/12/24 07:34:29;;;;;;;5.88;1.40;;;;;;;7.58;94.14;100582.56;4974197;28;99627;-42
2021/12/24 07:37:13;;;;;;;4.28;0.65;;;;;;;7.58;94.68;100588.84;4977480;28;99211;-42
2021/12/24 07:39:38;;;;;;;14.05;1.38;;;;;;;7.55;94.44;100586.28;4994737;28;96494;-42
2021/12/24 07:42:09;;;;;;;4.20;1.10;;;;;;;7.44;94.38;100567.16;4994710;28;96806;-42
2021/12/24 07:44:35;;;;;;;3.10;1.48;;;;;;;7.56;94.58;100588.06;4993979;28;99736;-42
2021/12/24 07:47:04;;;;;;;4.30;1.08;;;;;;;7.53;94.63;100590.94;4992645;28;100865;-42
2021/12/24 07:49:30;;;;;;;3.35;1.00;;;;;;;7.57;94.58;100583.53;4992496;28;96613;-42
2021/12/24 07:54:29;;;;;;;1.95;0.90;;;;;;;7.50;94.47;100577.59;4993850;28;97452;-42
2021/12/24 07:56:55;;;;;;;3.17;1.30;;;;;;;7.62;94.55;100603.03;4993712;28;97314;-42
2021/12/24 07:59:21;;;;;;;2.03;0.60;;;;;;;7.53;94.24;100576.56;4993611;28;96760;-41
2021/12/24 08:01:47;;;;;;;5.72;1.20;;;;;;;7.42;94.50;100593.31;4994455;28;96780;-42
2021/12/24 08:04:13;;;;;;;2.08;1.17;;;;;;;7.42;94.53;100590.63;4996886;28;98031;-42
2021/12/24 08:06:39;;;;;;;3.97;1.20;;;;;;;7.37;94.24;100596.25;4997805;28;97828;-42
2021/12/24 08:09:07;;;;;;;4.97;1.52;;;;;;;7.33;94.63;100602.72;4997312;28;96587;-42
2021/12/24 08:11:33;;;;;;;4.40;1.45;;;;;;;7.31;94.60;100604.63;4996113;28;96807;-42
2021/12/24 08:14:00;;;;;;;7.93;1.15;;;;;;;7.26;94.79;100598.63;4995242;28;100883;-42
2021/12/24 08:16:26;;;;;;;13.63;1.15;;;;;;;7.28;94.91;100612.88;4995696;28;101305;-42
2021/12/24 08:18:51;;;;;;;1.65;0.85;;;;;;;7.21;95.03;100592.59;4997490;28;96484;-42
2021/12/24 08:21:16;;;;;;;2.95;1.27;;;;;;;7.18;95.01;100596.31;4996612;28;117086;-42
2021/12/24 08:23:45;;;;;;;5.22;1.20;;;;;;;7.14;94.98;100583.97;4996298;28;123221;-42
2021/12/24 08:26:10;;;;;;;3.97;1.13;;;;;;;7.28;95.00;100607.50;4996779;28;97821;-42
2021/12/24 08:28:36;;;;;;;1.75;1.35;;;;;;;7.28;94.99;100593.16;4997260;28;96544;-42
2021/12/24 08:31:02;;;;;;;6.70;1.35;;;;;;;7.28;94.83;100595.84;4995563;28;116968;-42
2021/12/24 08:33:27;;;;;;;2.58;1.10;;;;;;;7.23;94.88;100590.69;4996735;28;99782;-42
2021/12/24 08:35:53;;;;;;;5.50;1.42;;;;;;;7.30;94.97;100602.03;4997051;28;97945;-42
2021/12/24 08:38:19;;;;;;;5.97;1.63;;;;;;;7.27;94.87;100595.00;4995522;28;118679;-42
2021/12/24 08:40:45;;;;;;;2.28;1.23;;;;;;;7.26;95.08;100598.63;4995704;28;96780;-41
2021/12/24 08:43:10;;;;;;;3.67;1.50;;;;;;;7.35;95.06;100611.63;4995985;28;112464;-41
2021/12/24 08:45:36;;;;;;;4.95;1.50;;;;;;;7.36;95.06;100607.94;4995934;28;123334;-42
2021/12/24 08:48:01;;;;;;;3.10;1.00;;;;;;;7.40;94.97;100609.53;4996162;28;113062;-42
2021/12/24 08:50:26;;;;;;;2.30;1.10;;;;;;;7.31;95.12;100593.00;4996074;28;117241;-41
2021/12/24 08:52:51;;;;;;;4.20;1.42;;;;;;;7.40;95.06;100597.91;4996572;28;97704;-42
2021/12/24 08:55:17;;;;;;;1.65;1.23;;;;;;;7.42;95.18;100606.78;4996395;28;112642;-42
2021/12/24 08:57:43;;;;;;;8.23;1.15;;;;;;;7.41;94.99;100605.91;4996968;28;96580;-42
2021/12/24 09:00:11;;;;;;;4.30;1.33;;;;;;;7.34;94.92;100596.41;4994963;28;96768;-42
2021/12/24 09:02:38;;;;;;;4.38;1.27;;;;;;;7.46;94.94;100608.38;4994670;28;101647;-42
2021/12/24 09:05:05;;;;;;;13.98;1.67;;;;;;;7.48;94.71;100617.22;4995077;28;101076;-42
2021/12/24 09:07:31;;;;;;;8.77;1.77;;;;;;;7.39;94.74;100597.03;4995651;28;96597;-42
2021/12/24 09:09:56;;;;;;;5.25;1.70;;;;;;;7.48;94.90;100606.44;4996634;28;96716;-42
2021/12/24 09:12:22;;;;;;;4.45;1.73;;;;;;;7.44;94.96;100594.09;4996390;28;97967;-42
2021/12/24 09:14:47;;;;;;;5.32;1.63;;;;;;;7.51;94.76;100603.59;4995623;28;97957;-42
2021/12/24 09:17:12;;;;;;;2.58;1.45;;;;;;;7.44;94.78;100596.78;4996571;28;96471;-41
2021/12/24 09:19:45;;;;;;;7.97;2.10;;;;;;;7.55;94.57;100613.25;4997055;28;96737;-42
2021/12/24 09:22:16;;;;;;;4.78;1.48;;;;;;;7.51;94.63;100591.94;4996300;28;97488;-42
2021/12/24 09:24:42;;;;;;;5.40;1.90;;;;;;;7.55;94.71;100599.78;4995831;28;99360;-42
2021/12/24 09:27:08;;;;;;;9.48;1.67;;;;;;;7.56;94.76;100604.22;4996141;28;96615;-42
2021/12/24 09:29:33;;;;;;;4.15;1.38;;;;;;;7.51;94.51;100589.22;4996478;28;96801;-41
2021/12/24 09:31:58;;;;;;;9.68;2.42;;;;;;;7.53;94.69;100587.34;4996128;28;97019;-42
2021/12/24 09:34:24;;;;;;;6.53;2.20;;;;;;;7.60;94.54;100589.66;4995805;28;101465;-42
2021/12/24 09:36:49;;;;;;;4.32;2.13;;;;;;;7.64;94.29;100591.19;4996249;28;96687;-42
2021/12/24 09:39:15;;;;;;;9.63;1.73;;;;;;;7.64;94.59;100596.59;4996336;28;96895;-42
2021/12/24 09:41:40;;;;;;;2.35;1.65;;;;;;;7.56;94.60;100582.66;4995835;28;97887;-42
2021/12/24 09:44:06;;;;;;;5.43;1.63;;;;;;;7.58;94.60;100587.97;4996337;28;97613;-42
2021/12/24 09:46:32;;;;;;;5.25;2.30;;;;;;;7.64;94.67;100601.13;4995953;28;96701;-41
2021/12/24 09:48:58;;;;;;;6.75;1.33;;;;;;;7.61;94.65;100593.19;4996217;28;96729;-42
2021/12/24 09:51:26;;;;;;;2.53;1.30;;;;;;;7.58;94.57;100587.97;4993937;28;100978;-41
2021/12/24 09:53:53;;;;;;;5.40;2.33;;;;;;;7.57;94.63;100583.53;4994159;28;100753;-41
2021/12/24 09:56:20;;;;;;;3.80;1.83;;;;;;;7.59;94.46;100581.63;4994345;28;96853;-41
2021/12/24 09:58:46;;;;;;;2.33;1.40;;;;;;;7.66;94.44;100600.09;4993809;28;96812;-42
2021/12/24 10:01:28;;;;;;;3.55;1.88;;;;;;;7.68;94.35;100601.84;4995721;28;97970;-42
2021/12/24 10:04:03;;;;;;;6.63;1.67;;;;;;;7.66;94.41;100605.47;4995792;28;97773;-42
2021/12/24 10:06:29;;;;;;;10.30;2.03;;;;;;;7.60;94.26;100591.44;4995783;28;96468;-42
2021/12/24 10:09:08;;;;;;;8.50;1.85;;;;;;;7.70;94.38;100599.91;4996267;28;96752;-42
2021/12/24 10:11:50;;;;;;;5.55;2.05;;;;;;;7.71;94.17;100604.38;4993939;28;100843;-42
2021/12/24 10:14:18;;;;;;;9.73;1.65;;;;;;;7.76;94.14;100604.97;4995244;28;99363;-42
2021/12/24 10:16:46;;;;;;;3.58;2.05;;;;;;;7.62;94.48;100579.63;4993511;28;96763;-42
2021/12/24 10:19:13;;;;;;;9.27;1.98;;;;;;;7.78;94.18;100609.34;4994023;28;96796;-42
2021/12/24 10:21:39;;;;;;;1.98;1.38;;;;;;;7.75;93.97;100587.06;4993959;28;100886;-42
2021/12/24 10:24:16;;;;;;;4.07;1.73;;;;;;;7.75;93.87;100587.06;4995396;28;97841;-42
2021/12/24 10:26:50;;;;;;;4.60;1.38;;;;;;;7.76;94.04;100583.41;4994534;28;96498;-42
2021/12/24 10:29:19;;;;;;;1.58;0.82;;;;;;;7.89;93.86;100592.59;4994176;28;96862;-41
2021/12/24 10:31:50;;;;;;;8.90;2.45;;;;;;;7.90;93.95;100588.94;4993664;28;100832;-42
2021/12/24 10:34:23;;;;;;;10.07;1.43;;;;;;;7.82;93.81;100567.78;4993887;28;101081;-42
2021/12/24 10:37:19;;;;;;;4.25;1.83;;;;;;;8.02;93.62;100595.47;4994085;28;96664;-42
2021/12/24 10:39:58;;;;;;;2.28;1.48;;;;;;;8.05;93.48;100601.56;4995094;28;96825;-42
2021/12/24 10:42:36;;;;;;;9.75;2.25;;;;;;;7.95;93.00;100567.97;4992828;28;101113;-42
2021/12/24 10:45:07;;;;;;;3.25;1.77;;;;;;;8.08;93.33;100579.81;4993647;28;100864;-42
2021/12/24 10:47:37;;;;;;;2.50;1.30;;;;;;;8.01;93.44;100570.34;4995372;28;96540;-42
2021/12/24 10:50:25;;;;;;;6.25;2.35;;;;;;;8.00;93.19;100573.97;4993742;28;96793;-42
2021/12/24 10:53:15;;;;;;;2.58;1.35;;;;;;;8.10;93.26;100582.41;4994765;28;99378;-42
2021/12/24 10:55:53;;;;;;;5.97;2.85;;;;;;;7.97;93.11;100549.88;4994453;28;98755;-42
2021/12/24 10:58:24;;;;;;;1.95;1.50;;;;;;;8.09;93.10;100570.75;4994912;28;96599;-42
2021/12/24 11:00:54;;;;;;;9.23;2.20;;;;;;;8.03;92.89;100541.47;4993778;28;96756;-42
2021/12/24 11:03:32;;;;;;;3.53;1.70;;;;;;;8.20;92.90;100574.69;4993451;28;99625;-42
2021/12/24 11:06:06;;;;;;;16.75;2.50;;;;;;;8.23;93.02;100577.22;4993263;28;101068;-42
2021/12/24 11:08:32;;;;;;;5.82;1.95;;;;;;;8.14;92.91;100556.16;4993067;28;96617;-42
2021/12/24 11:11:01;;;;;;;7.07;1.92;;;;;;;8.24;92.86;100578.97;4993434;28;96930;-41
2021/12/24 11:13:33;;;;;;;1.92;1.30;;;;;;;8.14;92.97;100556.16;4992914;28;104491;-42
2021/12/24 11:16:02;;;;;;;4.63;2.65;;;;;;;8.21;92.76;100574.59;4993248;28;100855;-42
2021/12/24 11:18:30;;;;;;;6.20;1.65;;;;;;;8.25;92.79;100583.41;4994589;28;96646;-42
2021/12/24 11:21:02;;;;;;;4.25;1.42;;;;;;;8.11;93.01;100559.91;4993408;28;96727;-42
2021/12/24 11:23:30;;;;;;;7.32;2.08;;;;;;;8.22;92.97;100579.06;4992859;28;100884;-42
2021/12/24 11:26:03;;;;;;;8.38;1.80;;;;;;;8.21;92.94;100579.13;4993306;28;103594;-42
2021/12/24 11:28:30;;;;;;;4.28;1.77;;;;;;;8.13;93.17;100576.88;4994745;28;96482;-42
2021/12/24 11:31:00;;;;;;;7.88;1.60;;;;;;;8.06;93.29;100568.25;4991614;28;96970;-42
2021/12/24 11:33:28;;;;;;;7.93;1.92;;;;;;;8.14;93.11;100572.34;4992396;28;100924;-42
2021/12/24 11:35:55;;;;;;;8.27;1.85;;;;;;;8.17;93.11;100575.72;4994216;28;97349;-42
2021/12/24 11:38:24;;;;;;;6.35;1.48;;;;;;;8.15;93.07;100580.38;4994877;28;96797;-42
2021/12/24 11:40:51;;;;;;;8.15;1.95;;;;;;;8.07;93.10;100567.28;4996672;28;96842;-42
2021/12/24 11:43:18;;;;;;;4.38;1.45;;;;;;;8.02;93.38;100561.28;4991063;28;101070;-42
2021/12/24 11:45:44;;;;;;;7.45;2.28;;;;;;;8.12;93.47;100574.25;4982579;28;100796;-42
2021/12/24 11:48:09;;;;;;;6.10;1.80;;;;;;;7.95;93.51;100556.31;4995932;28;96701;-42
2021/12/24 11:50:35;;;;;;;2.55;1.15;;;;;;;8.11;93.55;100567.13;4980723;28;96693;-42
2021/12/24 11:53:08;;;;;;;7.22;2.13;;;;;;;7.99;93.69;100553.38;4994058;28;97974;-42
2021/12/24 11:55:39;;;;;;;13.82;2.08;;;;;;;8.11;93.50;100575.22;4977289;28;99229;-42
2021/12/24 11:58:14;;;;;;;2.15;1.45;;;;;;;8.05;93.56;100563.78;4977379;28;96497;-42
2021/12/24 12:00:41;;;;;;;1.90;1.20;;;;;;;8.01;93.66;100555.97;4976296;28;96813;-42
2021/12/24 12:03:10;;;;;;;7.93;1.75;;;;;;;8.02;93.78;100560.41;4976199;28;101254;-42
2021/12/24 12:05:38;;;;;;;2.17;1.50;;;;;;;8.02;93.53;100561.28;4987819;28;99244;-42
2021/12/24 12:08:25;;;;;;;14.05;1.90;;;;;;;8.13;93.52;100571.47;4979766;28;96914;-43
2021/12/24 12:10:53;;;;;;;7.22;1.38;;;;;;;8.13;93.54;100575.97;4977816;28;96767;-42
2021/12/24 12:13:45;;;;;;;7.47;2.25;;;;;;;8.15;93.36;100587.56;4995364;28;100972;-42
2021/12/24 12:16:17;;;;;;;5.70;1.10;;;;;;;8.14;93.68;100577.75;4976577;28;100881;-42
2021/12/24 12:19:04;;;;;;;4.93;1.85;;;;;;;8.12;93.59;100568.84;4976187;28;96609;-42
2021/12/24 12:21:37;;;;;;;5.10;1.42;;;;;;;8.05;93.59;100563.78;4977769;28;96516;-42
2021/12/24 12:26:52;;;;;;;1.75;1.17;;;;;;;8.19;93.62;100575.66;4975578;28;97829;-42
2021/12/24 12:29:19;;;;;;;4.03;1.17;;;;;;;8.17;93.34;100581.13;4976125;28;97301;-42
2021/12/24 12:31:46;;;;;;;1.85;1.33;;;;;;;8.09;93.46;100553.72;4977375;28;96837;-42
2021/12/24 12:34:39;;;;;;;3.10;1.67;;;;;;;8.23;93.61;100574.53;4975369;28;99018;-42
2021/12/24 12:37:27;;;;;;;3.80;1.40;;;;;;;8.20;93.33;100569.28;4976870;28;99402;-42
2021/12/24 12:40:00;;;;;;;4.20;1.50;;;;;;;8.20;93.46;100561.19;4975961;28;96647;-42
2021/12/24 12:42:56;;;;;;;7.45;1.30;;;;;;;8.05;93.28;100533.25;4976040;28;96783;-42
2021/12/24 12:45:42;;;;;;;2.30;1.25;;;;;;;8.26;93.48;100559.03;4975485;28;101348;-41
2021/12/24 12:48:11;;;;;;;7.25;1.83;;;;;;;8.17;93.16;100545.19;4978947;28;98639;-42
2021/12/24 12:50:38;;;;;;;5.63;1.40;;;;;;;8.22;93.16;100554.78;4974181;28;96578;-42
2021/12/24 12:53:22;;;;;;;1.55;1.10;;;;;;;8.25;93.23;100560.00;4975572;28;96909;-42
2021/12/24 12:55:49;;;;;;;3.08;1.55;;;;;;;8.16;93.27;100540.75;4976376;28;99462;-42
2021/12/24 12:58:23;;;;;;;2.45;0.93;;;;;;;8.12;93.23;100533.78;4975276;28;100596;-42
2021/12/24 13:01:07;;;;;;;9.65;1.80;;;;;;;8.14;93.11;100531.88;4975426;28;96909;-42
2021/12/24 13:03:53;;;;;;;1.27;0.98;;;;;;;8.18;93.23;100538.84;4976586;28;96685;-42
2021/12/24 13:06:20;;;;;;;8.57;1.85;;;;;;;8.26;93.15;100553.63;4976268;28;99276;-42
2021/12/24 13:08:45;;;;;;;10.63;1.30;;;;;;;8.26;93.20;100552.75;4979987;28;102026;-42
2021/12/24 13:11:12;;;;;;;2.42;1.25;;;;;;;8.07;93.51;100520.56;4976055;28;107771;-42
2021/12/24 13:13:54;;;;;;;13.98;2.03;;;;;;;8.23;93.41;100550.25;4974975;28;96932;-42
2021/12/24 13:16:21;;;;;;;;;;;;;;;8.23;93.48;100556.50;4976147;28;99241;-42